Private Wetterstation Nrnberg - Katzwang
Wetterdaten: Oktober 2014
Datum Temp. A. Feuchte A. Luftdruck Regen Wind Richtung Taupunkt Windchill Windben
01.10.2014 16,0 C 79 % 1024 hPa 0,0 l/m 0,0 km/h N-NO 12,3 C 16,0 C 1,0 km/h
02.10.2014 16,0 C 77 % 1025 hPa 0,0 l/m 1,5 km/h O-NO 11,9 C 16,0 C 2,5 km/h
03.10.2014 14,0 C 74 % 1022 hPa 0,0 l/m 1,2 km/h O 9,3 C 14,0 C 2,2 km/h
04.10.2014 12,8 C 73 % 1016 hPa 0,0 l/m 9,3 km/h O-NO 8,0 C 11,0 C 10,9 km/h
05.10.2014 12,0 C 77 % 1014 hPa 0,0 l/m 1,7 km/h O 8,0 C 12,0 C 2,7 km/h
06.10.2014 11,4 C 78 % 1011 hPa 0,0 l/m 3,6 km/h O 7,8 C 11,1 C 4,6 km/h
07.10.2014 14,0 C 81 % 1008 hPa 5,7 l/m 11,1 km/h NO 10,7 C 11,6 C 12,1 km/h
08.10.2014 16,0 C 79 % 1008 hPa 1,6 l/m 11,1 km/h NO 12,3 C 13,6 C 12,1 km/h
09.10.2014 18,1 C 72 % 1009 hPa 0,0 l/m 2,9 km/h N-NO 12,7 C 17,8 C 3,9 km/h
10.10.2014 15,9 C 80 % 1013 hPa 0,0 l/m 0,0 km/h N-NO 12,5 C 15,9 C 1,0 km/h
11.10.2014 15,3 C 81 % 1012 hPa 0,0 l/m 3,1 km/h N 11,9 C 15,2 C 4,1 km/h
12.10.2014 15,2 C 79 % 1010 hPa 0,0 l/m 1,4 km/h NO 11,4 C 15,2 C 2,4 km/h
13.10.2014 15,0 C 80 % 1007 hPa 0,0 l/m 0,0 km/h O 11,6 C 15,0 C 1,0 km/h
14.10.2014 15,2 C 77 % 1007 hPa 3,1 l/m 2,7 km/h N-NO 11,0 C 15,1 C 3,7 km/h
15.10.2014 14,5 C 79 % 1006 hPa 4,7 l/m 0,0 km/h NO 10,8 C 14,5 C 1,0 km/h
16.10.2014 15,0 C 80 % 1007 hPa 1,6 l/m 1,7 km/h W-NW 11,4 C 15,0 C 2,7 km/h
17.10.2014 13,5 C 81 % 1014 hPa 9,8 l/m 3,3 km/h W-NW 10,3 C 12,8 C 4,3 km/h
18.10.2014 12,2 C 81 % 1021 hPa 0,0 l/m 2,0 km/h NO 8,9 C 12,0 C 3,0 km/h
19.10.2014 15,6 C 79 % 1018 hPa 0,0 l/m 4,3 km/h N-NO 11,8 C 15,6 C 5,3 km/h
20.10.2014 15,6 C 82 % 1015 hPa 1,6 l/m 1,0 km/h W-NW 12,5 C 15,6 C 2,0 km/h
21.10.2014 10,6 C 79 % 1006 hPa 6,2 l/m 7,5 km/h W-NW 7,0 C 8,9 C 14,7 km/h
22.10.2014 7,0 C 82 % 1010 hPa 11,4 l/m 12,1 km/h W-NW 4,1 C 3,1 C 19,0 km/h
23.10.2014 8,2 C 80 % 1019 hPa 0,0 l/m 0,9 km/h W-NW 5,0 C 8,2 C 1,9 km/h
24.10.2014 8,7 C 77 % 1019 hPa 0,0 l/m 0,2 km/h NO 4,7 C 8,7 C 1,2 km/h
25.10.2014 7,9 C 82 % 1019 hPa 0,0 l/m 3,3 km/h O-NO 5,1 C 7,9 C 4,3 km/h
26.10.2014 9,4 C 81 % 1024 hPa 0,0 l/m 7,3 km/h NO 6,3 C 7,3 C 8,4 km/h
27.10.2014 8,3 C 78 % 1024 hPa 0,0 l/m 7,9 km/h O 4,6 C 7,0 C 8,9 km/h
28.10.2014 6,5 C 79 % 1018 hPa 0,0 l/m 6,3 km/h O-NO 3,1 C 6,3 C 7,3 km/h
29.10.2014 9,2 C 77 % 1017 hPa 0,0 l/m 1,7 km/h O-NO 5,4 C 9,1 C 2,7 km/h
30.10.2014 9,6 C 81 % 1023 hPa 0,0 l/m 2,0 km/h NO 6,5 C 9,6 C 3,0 km/h
31.10.2014 10,8 C 80 % 1023 hPa 0,0 l/m 0,9 km/h NO 7,3 C 10,8 C 1,9 km/h
Min-Datum 28.10.14 09.10.14 21.10.14 9 Tage 01.10.14 - 28.10.14 22.10.14 01.10.14
Min-Zeit 19:50 16:00 20:30 - 00:00 - 19:50 09:40 00:00
Minimum 3,4 C 52 % 999 hPa - 0,0 km/h - 0,3 C -4,0 C 1,0 km/h
Max-Datum 09.10.14 19.10.14 02.10.14 22.10.14 22.10.14 - 09.10.14 09.10.14 22.10.14
Max-Zeit 14:30 08:00 08:50 07:40 06:50 - 14:10 14:40 12:20
Maximum 25,4 C 86 % 1027 hPa 11,4 l/m 31,5 km/h
W-NW
- 16,8 C 25,4 C 61,2 km/h
W-NW
Durchschnitt 12,6 C 79 % 1015 hPa #45,6 l/m 3,6 km/h NO 8,9 C 12,0 C 5,0 km/h

Durchschnitt Minimum Temp.9,1 C
Durchschnitt Maximum Temp.17,1 C